sensor_id;sensor_type;location;lat;lon;timestamp;P1;durP1;ratioP1;P2;durP2;ratioP2
20101;SDS011;10210;52.284;9.892;2022-12-10T00:01:30;72.87;;;24.17;;
20101;SDS011;10210;52.284;9.892;2022-12-10T00:03:57;61.03;;;22.47;;
20101;SDS011;10210;52.284;9.892;2022-12-10T00:06:25;84.17;;;24.10;;
20101;SDS011;10210;52.284;9.892;2022-12-10T00:08:53;62.57;;;22.23;;
20101;SDS011;10210;52.284;9.892;2022-12-10T00:11:20;72.50;;;23.77;;
20101;SDS011;10210;52.284;9.892;2022-12-10T00:13:48;61.33;;;24.23;;
20101;SDS011;10210;52.284;9.892;2022-12-10T00:16:17;60.77;;;23.87;;
20101;SDS011;10210;52.284;9.892;2022-12-10T00:18:45;66.80;;;23.97;;
20101;SDS011;10210;52.284;9.892;2022-12-10T00:21:14;63.53;;;22.73;;
20101;SDS011;10210;52.284;9.892;2022-12-10T00:23:43;71.27;;;23.23;;
20101;SDS011;10210;52.284;9.892;2022-12-10T00:26:11;62.80;;;21.93;;
20101;SDS011;10210;52.284;9.892;2022-12-10T00:28:41;60.77;;;24.50;;
20101;SDS011;10210;52.284;9.892;2022-12-10T00:31:09;60.87;;;22.13;;
20101;SDS011;10210;52.284;9.892;2022-12-10T00:33:41;67.10;;;23.53;;
20101;SDS011;10210;52.284;9.892;2022-12-10T00:36:15;61.17;;;20.93;;
20101;SDS011;10210;52.284;9.892;2022-12-10T00:38:44;71.43;;;23.40;;
20101;SDS011;10210;52.284;9.892;2022-12-10T00:41:13;66.60;;;23.07;;
20101;SDS011;10210;52.284;9.892;2022-12-10T00:43:40;66.27;;;23.40;;
20101;SDS011;10210;52.284;9.892;2022-12-10T00:46:06;75.47;;;23.40;;
20101;SDS011;10210;52.284;9.892;2022-12-10T00:48:32;58.43;;;23.23;;
20101;SDS011;10210;52.284;9.892;2022-12-10T00:51:00;58.50;;;22.67;;
20101;SDS011;10210;52.284;9.892;2022-12-10T00:53:28;73.33;;;23.10;;
20101;SDS011;10210;52.284;9.892;2022-12-10T00:55:56;64.50;;;22.27;;
20101;SDS011;10210;52.284;9.892;2022-12-10T00:58:23;63.40;;;20.83;;
20101;SDS011;10210;52.284;9.892;2022-12-10T01:00:53;49.23;;;22.27;;
20101;SDS011;10210;52.284;9.892;2022-12-10T01:03:19;51.90;;;22.40;;
20101;SDS011;10210;52.284;9.892;2022-12-10T01:05:45;54.30;;;22.23;;
20101;SDS011;10210;52.284;9.892;2022-12-10T01:08:11;50.10;;;20.47;;
20101;SDS011;10210;52.284;9.892;2022-12-10T01:10:36;51.87;;;20.83;;
20101;SDS011;10210;52.284;9.892;2022-12-10T01:13:03;51.57;;;22.03;;
20101;SDS011;10210;52.284;9.892;2022-12-10T01:15:29;49.93;;;20.90;;
20101;SDS011;10210;52.284;9.892;2022-12-10T01:17:55;48.27;;;21.47;;
20101;SDS011;10210;52.284;9.892;2022-12-10T01:20:21;47.50;;;21.43;;
20101;SDS011;10210;52.284;9.892;2022-12-10T01:22:47;54.77;;;23.20;;
20101;SDS011;10210;52.284;9.892;2022-12-10T01:25:12;47.63;;;21.23;;
20101;SDS011;10210;52.284;9.892;2022-12-10T01:27:38;53.03;;;23.77;;
20101;SDS011;10210;52.284;9.892;2022-12-10T01:30:04;61.03;;;24.50;;
20101;SDS011;10210;52.284;9.892;2022-12-10T01:32:30;52.80;;;23.67;;
20101;SDS011;10210;52.284;9.892;2022-12-10T01:34:56;59.50;;;23.77;;
20101;SDS011;10210;52.284;9.892;2022-12-10T01:37:22;52.87;;;22.93;;
20101;SDS011;10210;52.284;9.892;2022-12-10T01:39:47;57.27;;;23.27;;
20101;SDS011;10210;52.284;9.892;2022-12-10T01:42:13;55.50;;;22.13;;
20101;SDS011;10210;52.284;9.892;2022-12-10T01:47:07;50.33;;;21.97;;
20101;SDS011;10210;52.284;9.892;2022-12-10T01:49:36;50.87;;;22.27;;
20101;SDS011;10210;52.284;9.892;2022-12-10T01:52:07;51.97;;;19.97;;
20101;SDS011;10210;52.284;9.892;2022-12-10T01:54:37;53.23;;;23.23;;
20101;SDS011;10210;52.284;9.892;2022-12-10T01:57:12;51.93;;;23.17;;
20101;SDS011;10210;52.284;9.892;2022-12-10T01:59:42;51.73;;;21.83;;
20101;SDS011;10210;52.284;9.892;2022-12-10T02:02:46;54.27;;;22.13;;
20101;SDS011;10210;52.284;9.892;2022-12-10T02:08:01;46.40;;;19.80;;
20101;SDS011;10210;52.284;9.892;2022-12-10T02:11:03;51.87;;;21.83;;
20101;SDS011;10210;52.284;9.892;2022-12-10T02:13:49;55.17;;;21.30;;
20101;SDS011;10210;52.284;9.892;2022-12-10T02:22:01;57.10;;;21.13;;
20101;SDS011;10210;52.284;9.892;2022-12-10T02:24:30;47.67;;;20.07;;
20101;SDS011;10210;52.284;9.892;2022-12-10T02:27:11;54.73;;;19.30;;
20101;SDS011;10210;52.284;9.892;2022-12-10T02:29:47;55.07;;;18.93;;
20101;SDS011;10210;52.284;9.892;2022-12-10T02:32:18;54.80;;;20.33;;
20101;SDS011;10210;52.284;9.892;2022-12-10T02:34:50;55.63;;;21.50;;
20101;SDS011;10210;52.284;9.892;2022-12-10T02:37:33;50.97;;;20.73;;
20101;SDS011;10210;52.284;9.892;2022-12-10T02:40:11;57.27;;;21.37;;
20101;SDS011;10210;52.284;9.892;2022-12-10T02:42:44;50.63;;;21.33;;
20101;SDS011;10210;52.284;9.892;2022-12-10T02:45:15;58.37;;;21.63;;
20101;SDS011;10210;52.284;9.892;2022-12-10T02:47:44;52.17;;;21.40;;
20101;SDS011;10210;52.284;9.892;2022-12-10T02:50:12;60.50;;;21.67;;
20101;SDS011;10210;52.284;9.892;2022-12-10T02:52:43;49.03;;;21.07;;
20101;SDS011;10210;52.284;9.892;2022-12-10T02:55:13;60.83;;;21.30;;
20101;SDS011;10210;52.284;9.892;2022-12-10T03:00:40;55.93;;;20.93;;
20101;SDS011;10210;52.284;9.892;2022-12-10T03:03:22;49.60;;;19.87;;
20101;SDS011;10210;52.284;9.892;2022-12-10T03:09:03;54.47;;;20.77;;
20101;SDS011;10210;52.284;9.892;2022-12-10T03:11:38;52.57;;;21.23;;
20101;SDS011;10210;52.284;9.892;2022-12-10T03:14:13;56.27;;;21.27;;
20101;SDS011;10210;52.284;9.892;2022-12-10T03:16:49;55.60;;;20.27;;
20101;SDS011;10210;52.284;9.892;2022-12-10T03:19:21;55.20;;;19.97;;
20101;SDS011;10210;52.284;9.892;2022-12-10T03:21:55;51.30;;;19.53;;
20101;SDS011;10210;52.284;9.892;2022-12-10T03:24:23;59.73;;;19.97;;
20101;SDS011;10210;52.284;9.892;2022-12-10T03:26:52;54.40;;;20.23;;
20101;SDS011;10210;52.284;9.892;2022-12-10T03:29:20;59.10;;;19.90;;
20101;SDS011;10210;52.284;9.892;2022-12-10T03:31:52;45.33;;;18.87;;
20101;SDS011;10210;52.284;9.892;2022-12-10T03:34:19;48.70;;;19.43;;
20101;SDS011;10210;52.284;9.892;2022-12-10T03:36:46;51.70;;;18.77;;
20101;SDS011;10210;52.284;9.892;2022-12-10T03:39:14;48.80;;;19.63;;
20101;SDS011;10210;52.284;9.892;2022-12-10T03:41:41;45.77;;;19.13;;
20101;SDS011;10210;52.284;9.892;2022-12-10T03:44:07;44.83;;;18.23;;
20101;SDS011;10210;52.284;9.892;2022-12-10T03:46:32;54.97;;;19.67;;
20101;SDS011;10210;52.284;9.892;2022-12-10T03:48:59;60.13;;;19.37;;
20101;SDS011;10210;52.284;9.892;2022-12-10T03:51:25;47.90;;;18.70;;
20101;SDS011;10210;52.284;9.892;2022-12-10T03:53:51;69.20;;;19.13;;
20101;SDS011;10210;52.284;9.892;2022-12-10T03:56:18;47.13;;;18.90;;
20101;SDS011;10210;52.284;9.892;2022-12-10T03:58:45;74.03;;;20.50;;
20101;SDS011;10210;52.284;9.892;2022-12-10T04:01:12;53.40;;;19.43;;
20101;SDS011;10210;52.284;9.892;2022-12-10T04:03:41;58.57;;;20.40;;
20101;SDS011;10210;52.284;9.892;2022-12-10T04:06:10;55.93;;;19.33;;
20101;SDS011;10210;52.284;9.892;2022-12-10T04:08:40;58.07;;;20.13;;
20101;SDS011;10210;52.284;9.892;2022-12-10T04:11:07;43.57;;;17.80;;
20101;SDS011;10210;52.284;9.892;2022-12-10T04:13:35;56.57;;;19.50;;
20101;SDS011;10210;52.284;9.892;2022-12-10T04:16:22;56.60;;;19.77;;
20101;SDS011;10210;52.284;9.892;2022-12-10T04:18:52;48.33;;;20.20;;
20101;SDS011;10210;52.284;9.892;2022-12-10T04:21:26;50.17;;;19.83;;
20101;SDS011;10210;52.284;9.892;2022-12-10T04:24:12;50.93;;;19.03;;
20101;SDS011;10210;52.284;9.892;2022-12-10T04:26:59;48.50;;;19.70;;
20101;SDS011;10210;52.284;9.892;2022-12-10T04:29:57;57.07;;;20.47;;
20101;SDS011;10210;52.284;9.892;2022-12-10T04:32:25;47.93;;;18.37;;
20101;SDS011;10210;52.284;9.892;2022-12-10T04:34:53;59.33;;;20.53;;
20101;SDS011;10210;52.284;9.892;2022-12-10T04:37:19;53.53;;;20.40;;
20101;SDS011;10210;52.284;9.892;2022-12-10T04:39:46;59.07;;;20.10;;
20101;SDS011;10210;52.284;9.892;2022-12-10T04:42:13;52.07;;;19.13;;
20101;SDS011;10210;52.284;9.892;2022-12-10T04:44:39;47.73;;;19.43;;
20101;SDS011;10210;52.284;9.892;2022-12-10T04:47:05;61.23;;;18.23;;
20101;SDS011;10210;52.284;9.892;2022-12-10T04:49:33;49.87;;;18.30;;
20101;SDS011;10210;52.284;9.892;2022-12-10T04:52:00;47.27;;;17.53;;
20101;SDS011;10210;52.284;9.892;2022-12-10T04:54:26;47.63;;;17.47;;
20101;SDS011;10210;52.284;9.892;2022-12-10T04:56:52;41.87;;;17.90;;
20101;SDS011;10210;52.284;9.892;2022-12-10T04:59:18;46.90;;;17.97;;
20101;SDS011;10210;52.284;9.892;2022-12-10T05:01:44;49.00;;;18.87;;
20101;SDS011;10210;52.284;9.892;2022-12-10T05:04:12;43.30;;;18.17;;
20101;SDS011;10210;52.284;9.892;2022-12-10T05:06:40;48.90;;;18.17;;
20101;SDS011;10210;52.284;9.892;2022-12-10T05:09:07;44.40;;;17.37;;
20101;SDS011;10210;52.284;9.892;2022-12-10T05:11:34;41.00;;;17.03;;
20101;SDS011;10210;52.284;9.892;2022-12-10T05:14:01;41.23;;;15.90;;
20101;SDS011;10210;52.284;9.892;2022-12-10T05:16:28;47.63;;;17.60;;
20101;SDS011;10210;52.284;9.892;2022-12-10T05:18:56;40.53;;;15.70;;
20101;SDS011;10210;52.284;9.892;2022-12-10T05:21:23;42.43;;;17.07;;
20101;SDS011;10210;52.284;9.892;2022-12-10T05:24:12;38.27;;;15.07;;
20101;SDS011;10210;52.284;9.892;2022-12-10T05:26:39;37.30;;;15.03;;
20101;SDS011;10210;52.284;9.892;2022-12-10T05:29:05;36.73;;;14.93;;
20101;SDS011;10210;52.284;9.892;2022-12-10T05:31:31;37.40;;;15.63;;
20101;SDS011;10210;52.284;9.892;2022-12-10T05:33:57;37.80;;;15.37;;
20101;SDS011;10210;52.284;9.892;2022-12-10T05:36:27;30.07;;;12.60;;
20101;SDS011;10210;52.284;9.892;2022-12-10T05:38:56;33.97;;;13.87;;
20101;SDS011;10210;52.284;9.892;2022-12-10T05:41:24;33.67;;;13.63;;
20101;SDS011;10210;52.284;9.892;2022-12-10T05:43:53;29.30;;;12.83;;
20101;SDS011;10210;52.284;9.892;2022-12-10T05:46:24;36.70;;;14.13;;
20101;SDS011;10210;52.284;9.892;2022-12-10T05:48:53;30.73;;;13.30;;
20101;SDS011;10210;52.284;9.892;2022-12-10T05:51:23;30.67;;;13.47;;
20101;SDS011;10210;52.284;9.892;2022-12-10T05:53:53;29.33;;;12.23;;
20101;SDS011;10210;52.284;9.892;2022-12-10T05:56:22;29.43;;;12.73;;
20101;SDS011;10210;52.284;9.892;2022-12-10T05:58:50;30.70;;;13.30;;
20101;SDS011;10210;52.284;9.892;2022-12-10T06:01:20;29.30;;;12.87;;
20101;SDS011;10210;52.284;9.892;2022-12-10T06:03:50;31.03;;;13.13;;
20101;SDS011;10210;52.284;9.892;2022-12-10T06:06:24;31.53;;;13.50;;
20101;SDS011;10210;52.284;9.892;2022-12-10T06:08:56;32.33;;;13.13;;
20101;SDS011;10210;52.284;9.892;2022-12-10T06:11:23;32.57;;;12.67;;
20101;SDS011;10210;52.284;9.892;2022-12-10T06:13:51;30.47;;;13.07;;
20101;SDS011;10210;52.284;9.892;2022-12-10T06:16:19;30.20;;;13.50;;
20101;SDS011;10210;52.284;9.892;2022-12-10T06:18:45;31.37;;;12.90;;
20101;SDS011;10210;52.284;9.892;2022-12-10T06:21:12;28.23;;;12.07;;
20101;SDS011;10210;52.284;9.892;2022-12-10T06:23:40;30.17;;;12.57;;
20101;SDS011;10210;52.284;9.892;2022-12-10T06:26:09;29.23;;;12.17;;
20101;SDS011;10210;52.284;9.892;2022-12-10T06:28:43;28.30;;;12.07;;
20101;SDS011;10210;52.284;9.892;2022-12-10T06:31:11;27.43;;;12.80;;
20101;SDS011;10210;52.284;9.892;2022-12-10T06:33:39;27.97;;;12.97;;
20101;SDS011;10210;52.284;9.892;2022-12-10T06:36:06;30.70;;;13.13;;
20101;SDS011;10210;52.284;9.892;2022-12-10T06:38:34;30.37;;;12.70;;
20101;SDS011;10210;52.284;9.892;2022-12-10T06:41:03;30.67;;;14.63;;
20101;SDS011;10210;52.284;9.892;2022-12-10T06:43:32;30.63;;;13.17;;
20101;SDS011;10210;52.284;9.892;2022-12-10T06:45:58;32.00;;;13.73;;
20101;SDS011;10210;52.284;9.892;2022-12-10T06:48:28;31.33;;;13.50;;
20101;SDS011;10210;52.284;9.892;2022-12-10T06:50:54;30.90;;;12.60;;
20101;SDS011;10210;52.284;9.892;2022-12-10T06:53:20;31.03;;;13.07;;
20101;SDS011;10210;52.284;9.892;2022-12-10T06:55:46;32.73;;;13.83;;
20101;SDS011;10210;52.284;9.892;2022-12-10T06:58:11;31.60;;;14.50;;
20101;SDS011;10210;52.284;9.892;2022-12-10T07:00:37;31.47;;;13.10;;
20101;SDS011;10210;52.284;9.892;2022-12-10T07:03:03;29.73;;;12.77;;
20101;SDS011;10210;52.284;9.892;2022-12-10T07:05:28;32.00;;;14.30;;
20101;SDS011;10210;52.284;9.892;2022-12-10T07:07:54;29.87;;;12.73;;
20101;SDS011;10210;52.284;9.892;2022-12-10T07:10:20;30.33;;;13.60;;
20101;SDS011;10210;52.284;9.892;2022-12-10T07:12:46;31.93;;;13.93;;
20101;SDS011;10210;52.284;9.892;2022-12-10T07:15:11;30.87;;;13.30;;
20101;SDS011;10210;52.284;9.892;2022-12-10T07:17:37;34.93;;;14.73;;
20101;SDS011;10210;52.284;9.892;2022-12-10T07:20:03;33.13;;;14.20;;
20101;SDS011;10210;52.284;9.892;2022-12-10T07:22:30;38.00;;;14.10;;
20101;SDS011;10210;52.284;9.892;2022-12-10T07:24:55;31.87;;;13.90;;
20101;SDS011;10210;52.284;9.892;2022-12-10T07:27:21;33.63;;;15.23;;
20101;SDS011;10210;52.284;9.892;2022-12-10T07:29:47;34.20;;;14.73;;
20101;SDS011;10210;52.284;9.892;2022-12-10T07:32:13;38.63;;;14.67;;
20101;SDS011;10210;52.284;9.892;2022-12-10T07:34:39;32.40;;;13.90;;
20101;SDS011;10210;52.284;9.892;2022-12-10T07:37:04;31.47;;;13.27;;
20101;SDS011;10210;52.284;9.892;2022-12-10T07:39:30;33.20;;;13.70;;
20101;SDS011;10210;52.284;9.892;2022-12-10T07:41:56;33.20;;;13.93;;
20101;SDS011;10210;52.284;9.892;2022-12-10T07:44:23;30.73;;;13.23;;
20101;SDS011;10210;52.284;9.892;2022-12-10T07:46:51;37.47;;;14.60;;
20101;SDS011;10210;52.284;9.892;2022-12-10T07:49:18;31.83;;;13.70;;
20101;SDS011;10210;52.284;9.892;2022-12-10T07:51:45;36.03;;;15.00;;
20101;SDS011;10210;52.284;9.892;2022-12-10T07:54:13;36.23;;;14.83;;
20101;SDS011;10210;52.284;9.892;2022-12-10T07:56:40;35.43;;;14.90;;
20101;SDS011;10210;52.284;9.892;2022-12-10T07:59:06;33.87;;;13.80;;
20101;SDS011;10210;52.284;9.892;2022-12-10T08:01:32;32.87;;;13.63;;
20101;SDS011;10210;52.284;9.892;2022-12-10T08:03:58;35.23;;;14.47;;
20101;SDS011;10210;52.284;9.892;2022-12-10T08:06:24;35.50;;;14.23;;
20101;SDS011;10210;52.284;9.892;2022-12-10T08:08:52;33.70;;;14.80;;
20101;SDS011;10210;52.284;9.892;2022-12-10T08:11:18;35.23;;;14.23;;
20101;SDS011;10210;52.284;9.892;2022-12-10T08:13:46;35.03;;;14.37;;
20101;SDS011;10210;52.284;9.892;2022-12-10T08:16:17;37.23;;;14.73;;
20101;SDS011;10210;52.284;9.892;2022-12-10T08:18:47;40.63;;;15.27;;
20101;SDS011;10210;52.284;9.892;2022-12-10T08:21:17;32.90;;;13.13;;
20101;SDS011;10210;52.284;9.892;2022-12-10T08:23:46;35.37;;;13.77;;
20101;SDS011;10210;52.284;9.892;2022-12-10T08:26:15;34.87;;;14.43;;
20101;SDS011;10210;52.284;9.892;2022-12-10T08:28:48;34.77;;;13.80;;
20101;SDS011;10210;52.284;9.892;2022-12-10T08:31:16;35.47;;;13.80;;
20101;SDS011;10210;52.284;9.892;2022-12-10T08:33:46;36.87;;;14.40;;
20101;SDS011;10210;52.284;9.892;2022-12-10T08:36:14;30.73;;;13.00;;
20101;SDS011;10210;52.284;9.892;2022-12-10T08:38:41;30.30;;;12.23;;
20101;SDS011;10210;52.284;9.892;2022-12-10T08:41:10;31.83;;;13.67;;
20101;SDS011;10210;52.284;9.892;2022-12-10T08:43:43;36.30;;;14.37;;
20101;SDS011;10210;52.284;9.892;2022-12-10T08:46:10;32.03;;;13.83;;
20101;SDS011;10210;52.284;9.892;2022-12-10T08:48:37;34.33;;;13.30;;
20101;SDS011;10210;52.284;9.892;2022-12-10T08:51:03;31.70;;;12.83;;
20101;SDS011;10210;52.284;9.892;2022-12-10T08:53:31;34.60;;;14.30;;
20101;SDS011;10210;52.284;9.892;2022-12-10T08:55:57;34.13;;;14.67;;
20101;SDS011;10210;52.284;9.892;2022-12-10T08:58:23;32.00;;;14.00;;
20101;SDS011;10210;52.284;9.892;2022-12-10T09:00:49;34.17;;;13.33;;
20101;SDS011;10210;52.284;9.892;2022-12-10T09:03:15;30.73;;;12.97;;
20101;SDS011;10210;52.284;9.892;2022-12-10T09:05:42;31.43;;;12.93;;
20101;SDS011;10210;52.284;9.892;2022-12-10T09:08:08;29.00;;;12.90;;
20101;SDS011;10210;52.284;9.892;2022-12-10T09:10:37;32.03;;;13.43;;
20101;SDS011;10210;52.284;9.892;2022-12-10T09:13:04;30.07;;;13.13;;
20101;SDS011;10210;52.284;9.892;2022-12-10T09:15:30;31.70;;;13.83;;
20101;SDS011;10210;52.284;9.892;2022-12-10T09:17:57;28.37;;;13.03;;
20101;SDS011;10210;52.284;9.892;2022-12-10T09:20:22;33.77;;;14.17;;
20101;SDS011;10210;52.284;9.892;2022-12-10T09:22:48;31.57;;;13.23;;
20101;SDS011;10210;52.284;9.892;2022-12-10T09:25:14;29.90;;;12.60;;
20101;SDS011;10210;52.284;9.892;2022-12-10T09:27:42;29.13;;;13.43;;
20101;SDS011;10210;52.284;9.892;2022-12-10T09:30:09;30.80;;;13.03;;
20101;SDS011;10210;52.284;9.892;2022-12-10T09:32:35;32.03;;;13.67;;
20101;SDS011;10210;52.284;9.892;2022-12-10T09:35:01;33.73;;;14.53;;
20101;SDS011;10210;52.284;9.892;2022-12-10T09:37:28;35.47;;;14.67;;
20101;SDS011;10210;52.284;9.892;2022-12-10T09:39:55;33.23;;;13.17;;
20101;SDS011;10210;52.284;9.892;2022-12-10T09:42:31;33.67;;;14.57;;
20101;SDS011;10210;52.284;9.892;2022-12-10T09:51:27;33.10;;;14.80;;
20101;SDS011;10210;52.284;9.892;2022-12-10T09:54:01;31.57;;;13.37;;
20101;SDS011;10210;52.284;9.892;2022-12-10T09:56:47;35.97;;;14.80;;
20101;SDS011;10210;52.284;9.892;2022-12-10T09:59:36;38.03;;;15.10;;
20101;SDS011;10210;52.284;9.892;2022-12-10T10:07:41;33.73;;;13.57;;
20101;SDS011;10210;52.284;9.892;2022-12-10T10:12:54;33.30;;;14.13;;
20101;SDS011;10210;52.284;9.892;2022-12-10T10:15:29;33.97;;;14.63;;
20101;SDS011;10210;52.284;9.892;2022-12-10T10:17:59;38.53;;;15.13;;
20101;SDS011;10210;52.284;9.892;2022-12-10T10:20:40;35.67;;;15.03;;
20101;SDS011;10210;52.284;9.892;2022-12-10T10:23:07;33.30;;;14.63;;
20101;SDS011;10210;52.284;9.892;2022-12-10T10:25:37;36.37;;;15.77;;
20101;SDS011;10210;52.284;9.892;2022-12-10T10:28:03;36.73;;;15.60;;
20101;SDS011;10210;52.284;9.892;2022-12-10T10:30:29;33.00;;;14.47;;
20101;SDS011;10210;52.284;9.892;2022-12-10T10:32:56;35.73;;;14.73;;
20101;SDS011;10210;52.284;9.892;2022-12-10T10:35:33;35.87;;;15.43;;
20101;SDS011;10210;52.284;9.892;2022-12-10T10:38:13;40.27;;;15.30;;
20101;SDS011;10210;52.284;9.892;2022-12-10T10:40:46;36.37;;;14.03;;
20101;SDS011;10210;52.284;9.892;2022-12-10T10:48:42;37.47;;;15.57;;
20101;SDS011;10210;52.284;9.892;2022-12-10T10:53:41;40.67;;;16.67;;
20101;SDS011;10210;52.284;9.892;2022-12-10T10:59:05;38.23;;;15.07;;
20101;SDS011;10210;52.284;9.892;2022-12-10T11:01:54;39.83;;;15.97;;
20101;SDS011;10210;52.284;9.892;2022-12-10T11:04:30;36.97;;;14.97;;
20101;SDS011;10210;52.284;9.892;2022-12-10T11:07:04;39.47;;;14.63;;
20101;SDS011;10210;52.284;9.892;2022-12-10T11:09:39;43.57;;;16.40;;
20101;SDS011;10210;52.284;9.892;2022-12-10T11:12:06;37.23;;;14.97;;
20101;SDS011;10210;52.284;9.892;2022-12-10T11:14:52;43.23;;;16.30;;
20101;SDS011;10210;52.284;9.892;2022-12-10T11:17:18;42.73;;;16.73;;
20101;SDS011;10210;52.284;9.892;2022-12-10T11:22:59;38.27;;;15.20;;
20101;SDS011;10210;52.284;9.892;2022-12-10T11:34:19;41.83;;;16.90;;
20101;SDS011;10210;52.284;9.892;2022-12-10T11:37:00;42.90;;;17.60;;
20101;SDS011;10210;52.284;9.892;2022-12-10T11:51:40;46.80;;;18.17;;
20101;SDS011;10210;52.284;9.892;2022-12-10T12:01:10;41.50;;;16.10;;
20101;SDS011;10210;52.284;9.892;2022-12-10T12:07:05;46.13;;;18.10;;
20101;SDS011;10210;52.284;9.892;2022-12-10T12:13:00;44.33;;;17.70;;
20101;SDS011;10210;52.284;9.892;2022-12-10T12:15:50;43.27;;;17.90;;
20101;SDS011;10210;52.284;9.892;2022-12-10T12:18:39;41.23;;;17.53;;
20101;SDS011;10210;52.284;9.892;2022-12-10T12:21:27;42.53;;;18.13;;
20101;SDS011;10210;52.284;9.892;2022-12-10T12:24:03;41.70;;;17.43;;
20101;SDS011;10210;52.284;9.892;2022-12-10T12:26:38;44.73;;;18.30;;
20101;SDS011;10210;52.284;9.892;2022-12-10T12:29:16;44.87;;;18.37;;
20101;SDS011;10210;52.284;9.892;2022-12-10T12:32:11;43.50;;;17.97;;
20101;SDS011;10210;52.284;9.892;2022-12-10T12:34:51;43.53;;;18.27;;
20101;SDS011;10210;52.284;9.892;2022-12-10T12:37:49;43.33;;;19.33;;
20101;SDS011;10210;52.284;9.892;2022-12-10T12:43:09;42.00;;;17.73;;
20101;SDS011;10210;52.284;9.892;2022-12-10T12:45:42;41.07;;;17.97;;
20101;SDS011;10210;52.284;9.892;2022-12-10T12:51:09;44.77;;;19.13;;
20101;SDS011;10210;52.284;9.892;2022-12-10T12:53:35;42.53;;;18.67;;
20101;SDS011;10210;52.284;9.892;2022-12-10T12:59:13;43.70;;;19.27;;
20101;SDS011;10210;52.284;9.892;2022-12-10T13:04:51;40.27;;;18.23;;
20101;SDS011;10210;52.284;9.892;2022-12-10T13:09:44;38.40;;;17.40;;
20101;SDS011;10210;52.284;9.892;2022-12-10T13:12:32;42.47;;;18.70;;
20101;SDS011;10210;52.284;9.892;2022-12-10T13:15:32;40.83;;;20.17;;
20101;SDS011;10210;52.284;9.892;2022-12-10T13:18:04;43.00;;;23.17;;
20101;SDS011;10210;52.284;9.892;2022-12-10T13:20:40;43.00;;;21.23;;
20101;SDS011;10210;52.284;9.892;2022-12-10T13:31:18;33.07;;;16.23;;
20101;SDS011;10210;52.284;9.892;2022-12-10T13:36:28;61.20;;;30.83;;
20101;SDS011;10210;52.284;9.892;2022-12-10T13:41:38;45.30;;;22.17;;
20101;SDS011;10210;52.284;9.892;2022-12-10T13:44:46;42.93;;;20.83;;
20101;SDS011;10210;52.284;9.892;2022-12-10T13:47:24;39.10;;;18.37;;
20101;SDS011;10210;52.284;9.892;2022-12-10T13:50:14;37.97;;;17.50;;
20101;SDS011;10210;52.284;9.892;2022-12-10T14:07:15;35.63;;;16.30;;
20101;SDS011;10210;52.284;9.892;2022-12-10T14:10:01;35.47;;;16.47;;
20101;SDS011;10210;52.284;9.892;2022-12-10T14:12:29;35.07;;;16.27;;
20101;SDS011;10210;52.284;9.892;2022-12-10T14:15:22;30.13;;;14.03;;
20101;SDS011;10210;52.284;9.892;2022-12-10T14:17:50;38.30;;;18.27;;
20101;SDS011;10210;52.284;9.892;2022-12-10T14:20:24;35.83;;;16.80;;
20101;SDS011;10210;52.284;9.892;2022-12-10T14:22:52;32.27;;;15.27;;
20101;SDS011;10210;52.284;9.892;2022-12-10T14:25:43;33.70;;;15.80;;
20101;SDS011;10210;52.284;9.892;2022-12-10T14:28:12;34.40;;;16.30;;
20101;SDS011;10210;52.284;9.892;2022-12-10T14:30:42;33.77;;;15.90;;
20101;SDS011;10210;52.284;9.892;2022-12-10T14:33:18;33.47;;;16.20;;
20101;SDS011;10210;52.284;9.892;2022-12-10T14:35:49;37.57;;;17.27;;
20101;SDS011;10210;52.284;9.892;2022-12-10T14:38:18;38.47;;;16.57;;
20101;SDS011;10210;52.284;9.892;2022-12-10T14:40:52;34.93;;;15.73;;
20101;SDS011;10210;52.284;9.892;2022-12-10T14:43:23;34.63;;;16.57;;
20101;SDS011;10210;52.284;9.892;2022-12-10T14:46:04;37.47;;;17.10;;
20101;SDS011;10210;52.284;9.892;2022-12-10T14:48:39;37.27;;;17.67;;
20101;SDS011;10210;52.284;9.892;2022-12-10T14:51:18;40.53;;;18.63;;
20101;SDS011;10210;52.284;9.892;2022-12-10T14:53:48;38.60;;;17.47;;
20101;SDS011;10210;52.284;9.892;2022-12-10T14:56:20;37.17;;;17.97;;
20101;SDS011;10210;52.284;9.892;2022-12-10T14:59:02;37.67;;;17.10;;
20101;SDS011;10210;52.284;9.892;2022-12-10T15:01:40;36.67;;;17.03;;
20101;SDS011;10210;52.284;9.892;2022-12-10T15:04:13;39.10;;;18.97;;
20101;SDS011;10210;52.284;9.892;2022-12-10T15:06:43;40.43;;;19.13;;
20101;SDS011;10210;52.284;9.892;2022-12-10T15:09:16;39.17;;;18.10;;
20101;SDS011;10210;52.284;9.892;2022-12-10T15:11:55;40.27;;;18.10;;
20101;SDS011;10210;52.284;9.892;2022-12-10T15:14:25;40.43;;;17.90;;
20101;SDS011;10210;52.284;9.892;2022-12-10T15:16:54;38.43;;;17.80;;
20101;SDS011;10210;52.284;9.892;2022-12-10T15:21:58;38.63;;;17.10;;
20101;SDS011;10210;52.284;9.892;2022-12-10T15:24:37;40.80;;;19.00;;
20101;SDS011;10210;52.284;9.892;2022-12-10T15:27:16;38.97;;;18.10;;
20101;SDS011;10210;52.284;9.892;2022-12-10T15:29:48;38.60;;;17.97;;
20101;SDS011;10210;52.284;9.892;2022-12-10T15:32:16;38.17;;;18.60;;
20101;SDS011;10210;52.284;9.892;2022-12-10T15:34:55;41.93;;;19.10;;
20101;SDS011;10210;52.284;9.892;2022-12-10T15:37:37;36.97;;;17.07;;
20101;SDS011;10210;52.284;9.892;2022-12-10T15:40:06;38.47;;;17.30;;
20101;SDS011;10210;52.284;9.892;2022-12-10T15:42:48;37.73;;;16.87;;
20101;SDS011;10210;52.284;9.892;2022-12-10T15:45:19;39.97;;;18.40;;
20101;SDS011;10210;52.284;9.892;2022-12-10T15:48:09;38.33;;;17.67;;
20101;SDS011;10210;52.284;9.892;2022-12-10T15:50:37;38.67;;;17.67;;
20101;SDS011;10210;52.284;9.892;2022-12-10T15:53:09;37.07;;;17.60;;
20101;SDS011;10210;52.284;9.892;2022-12-10T15:55:41;42.03;;;18.13;;
20101;SDS011;10210;52.284;9.892;2022-12-10T15:58:11;38.03;;;17.40;;
20101;SDS011;10210;52.284;9.892;2022-12-10T16:00:39;37.43;;;17.00;;
20101;SDS011;10210;52.284;9.892;2022-12-10T16:03:09;40.50;;;18.27;;
20101;SDS011;10210;52.284;9.892;2022-12-10T16:05:38;37.53;;;17.17;;
20101;SDS011;10210;52.284;9.892;2022-12-10T16:08:18;41.40;;;18.60;;
20101;SDS011;10210;52.284;9.892;2022-12-10T16:10:48;38.33;;;17.40;;
20101;SDS011;10210;52.284;9.892;2022-12-10T16:13:17;38.90;;;16.90;;
20101;SDS011;10210;52.284;9.892;2022-12-10T16:15:50;40.23;;;18.23;;
20101;SDS011;10210;52.284;9.892;2022-12-10T16:18:25;38.63;;;17.00;;
20101;SDS011;10210;52.284;9.892;2022-12-10T16:20:51;39.73;;;18.53;;
20101;SDS011;10210;52.284;9.892;2022-12-10T16:23:17;36.43;;;18.13;;
20101;SDS011;10210;52.284;9.892;2022-12-10T16:25:44;39.87;;;18.83;;
20101;SDS011;10210;52.284;9.892;2022-12-10T16:28:12;38.03;;;17.80;;
20101;SDS011;10210;52.284;9.892;2022-12-10T16:30:45;37.03;;;17.60;;
20101;SDS011;10210;52.284;9.892;2022-12-10T16:33:14;37.83;;;18.27;;
20101;SDS011;10210;52.284;9.892;2022-12-10T16:35:45;37.23;;;18.37;;
20101;SDS011;10210;52.284;9.892;2022-12-10T16:38:15;41.03;;;18.87;;
20101;SDS011;10210;52.284;9.892;2022-12-10T16:40:41;37.77;;;17.83;;
20101;SDS011;10210;52.284;9.892;2022-12-10T16:43:13;38.23;;;18.60;;
20101;SDS011;10210;52.284;9.892;2022-12-10T16:45:48;38.47;;;18.10;;
20101;SDS011;10210;52.284;9.892;2022-12-10T16:48:15;38.97;;;18.60;;